Chicken, AK (99732)

11:08 PM AKDT on October 25, 2014 (GMT -0800)
RAWS CHICKEN AK US | Change Station
CLOSE
Current Station
Personal Weather Station
Location: Chicken, AK
Elevation: 2859 ft
Nearby Weather Stations

Elev 2859 ft 64.06 °N, 141.93 °W | Updated 48 minutes ago

Light Snow
Light Snow
14 °F
Feels Like 14 °F
N
3
Wind Variable Wind from NE
Gusts 8.0 mph

Today
High -- | Low -- °F
--% Chance of Precip.
Yesterday
High -- | Low -- °F
Precip. -- in
8:48 AM 5:35 PM
Waxing Crescent, 6% visible
Pressure 29.90 in
Visibility 5.0 miles
Clouds Scattered Clouds 2200 ft
Mostly Cloudy 5000 ft
Windchill 14 °F
Dew Point 11 °F
Humidity 87%
Rainfall 0.00 in
Snow Depth Not available.
UV 0 out of 12
Pollen Not available.
Air Quality Not available.
Flu Activity Local Activity
METAR PAOR 260653Z 00000KT 5SM -SN SCT022 BKN050 M07/M08 A2978 RMK AO2 SLP125 T10721083

More Conditions Fewer Conditions

Pressure 29.90 in
Visibility 5.0 miles
Clouds Scattered Clouds 2200 ft
Mostly Cloudy 5000 ft
Windchill 14 °F
Dew Point 11 °F
Humidity 87%
Rainfall 0.00 in
Snow Depth Not available.
UV 0 out of 12
Pollen Not available.
Air Quality Not available.
Flu Activity Local Activity
METAR PAOR 260653Z 00000KT 5SM -SN SCT022 BKN050 M07/M08 A2978 RMK AO2 SLP125 T10721083

More Conditions Fewer Conditions

10-Day Weather Forecast

Almanac

Astronomy

Oct. 25, 2014 Rise Set
Actual Time 8:48 AM AKDT 5:35 PM AKDT
Civil Twilight 7:58 AM AKDT 6:25 PM AKDT
Nautical Twilight 7:03 AM AKDT 7:20 PM AKDT
Astronomical Twilight 6:08 AM AKDT 8:15 PM AKDT
Moon 11:08 AM AKDT (10/25) 6:29 PM AKDT (10/25)
Length of Visible Light 10h 27m
Length of Day
8h 46m
Tomorrow will be 6m 22s shorter.
Waxing Crescent, 6% of the Moon is Illuminated
Oct 26
Waxing Crescent
Oct 30
First Quarter
Nov 6
Full
Nov 14
Last Quarter
Nov 22
New

Community

WunderPhotos

Upload Photos

1,765,115 photos uploaded!

Nearby

Snow Depth

Station Depth Elevation
Granite Creek 7 in 1240 ft
Upper Chena 11 in 2850 ft
Teuchet Creek 6 in 1640 ft
Munson Ridge 13 in 3100 ft
Monument Creek 7 in 1850 ft

Earthquake Activity

City Distance Mag. Time & Date
No recent earthquake activity has been reported nearby.
Minimum magnitude displayed is 2.5.

Coastal Water Temperatures

Place Temperature
No Stations Reporting

Nearby Weather Stations